Time;durP1;ratioP1;P1;durP2;ratioP2;P2;SDS_P1;SDS_P2;PMS_P1;PMS_P2;Temp;Humidity;BMP_temperature;BMP_pressure;BME280_temperature;BME280_humidity;BME280_pressure;Samples;Min_cycle;Max_cycle;Signal;HPM_P1;HPM_P2
2024/01/29 06:43:31;;;;;;;2.92;1.90;;;;;;;;;;10505239;27;20417;-82
2024/01/29 06:48:36;;;;;;;3.22;1.95;;;;;;;;;;10499075;28;20028;-79
2024/01/29 06:53:38;;;;;;;4.03;1.88;;;;;;;;;;10498531;28;20028;-80
2024/01/29 06:58:39;;;;;;;;;;;;;;;;;;10498951;28;20036;-80
2024/01/29 07:03:40;;;;;;;3.25;2.10;;;;;;;;;;10496352;28;19904;-80
2024/01/29 07:08:41;;;;;;;3.40;2.35;;;;;;;;;;10495742;28;20036;-80
2024/01/29 07:13:42;;;;;;;3.35;2.50;;;;;;;;;;10494657;28;20395;-80
2024/01/29 07:18:43;;;;;;;;;;;;;;;;;;10500147;28;20035;-80
2024/01/29 07:23:44;;;;;;;5.00;3.58;;;;;;;;;;10495012;28;19905;-80
2024/01/29 07:28:45;;;;;;;;;;;;;;;;;;10495927;28;20148;-80
2024/01/29 07:33:46;;;;;;;3.85;2.42;;;;;;;;;;10496193;28;19908;-80
2024/01/29 07:38:47;;;;;;;;;;;;;;;;;;10497201;28;20357;-80
2024/01/29 07:43:49;;;;;;;5.22;2.75;;;;;;;;;;10498307;28;19913;-79
2024/01/29 07:48:50;;;;;;;9.95;4.05;;;;;;;;;;10499476;28;20025;-79
2024/01/29 07:53:51;;;;;;;3.92;3.10;;;;;;;;;;10476400;28;20047;-79
2024/01/29 07:58:52;;;;;;;;;;;;;;;;;;10470429;28;20033;-80
2024/01/29 08:03:53;;;;;;;5.13;2.97;;;;;;;;;;10469965;28;19904;-80
2024/01/29 08:08:54;;;;;;;5.65;2.80;;;;;;;;;;10468812;28;20032;-81
2024/01/29 08:13:55;;;;;;;;;;;;;;;;;;10471072;28;20025;-81
2024/01/29 08:30:38;;;;;;;8.18;5.03;;;;;;;;;;10480911;28;20021;-82
2024/01/29 08:36:27;;;;;;;7.18;5.35;;;;;;;;;;10545689;28;20047;-80
2024/01/29 08:52:48;;;;;;;3.92;3.00;;;;;;;;;;10515752;28;20396;-82
2024/01/29 09:04:08;;;;;;;5.57;3.78;;;;;;;;;;10510708;28;20044;-82
2024/01/29 09:09:43;;;;;;;6.40;3.83;;;;;;;;;;10540478;28;20028;-82
2024/01/29 09:15:15;;;;;;;5.65;3.90;;;;;;;;;;10497285;28;20028;-82
2024/01/29 09:32:11;;;;;;;5.10;4.32;;;;;;;;;;10558672;28;20030;-82
2024/01/29 09:38:07;;;;;;;5.07;3.75;;;;;;;;;;10588394;28;20397;-82
2024/01/29 09:43:31;;;;;;;6.00;4.28;;;;;;;;;;10578534;28;20040;-81
2024/01/29 09:49:09;;;;;;;6.43;3.65;;;;;;;;;;10590984;27;20043;-81
2024/01/29 09:54:49;;;;;;;5.07;4.00;;;;;;;;;;10601076;28;20039;-84
2024/01/29 10:00:15;;;;;;;5.55;4.13;;;;;;;;;;10597340;28;20039;-85
2024/01/29 10:11:02;;;;;;;7.00;4.63;;;;;;;;;;10598477;28;20039;-84
2024/01/29 10:22:00;;;;;;;5.83;4.27;;;;;;;;;;10590187;28;20039;-84
2024/01/29 10:27:10;;;;;;;5.43;4.35;;;;;;;;;;10597661;28;20059;-84
2024/01/29 10:32:45;;;;;;;5.45;3.67;;;;;;;;;;10576603;28;20032;-85
2024/01/29 10:44:04;;;;;;;7.93;4.38;;;;;;;;;;10594742;28;20067;-85
2024/01/29 10:49:29;;;;;;;8.98;5.32;;;;;;;;;;10576289;28;20054;-85
2024/01/29 10:55:04;;;;;;;5.28;3.90;;;;;;;;;;10593602;28;20343;-84
2024/01/29 11:00:10;;;;;;;5.78;3.75;;;;;;;;;;10581142;28;20046;-85
2024/01/29 11:05:19;;;;;;;5.53;4.10;;;;;;;;;;10594702;27;20384;-85
2024/01/29 11:10:25;;;;;;;5.40;4.20;;;;;;;;;;10577292;28;20051;-84
2024/01/29 11:16:20;;;;;;;5.80;4.28;;;;;;;;;;10583459;28;20040;-85
2024/01/29 11:50:27;;;;;;;5.50;4.18;;;;;;;;;;10496789;28;20025;-84
2024/01/29 11:56:21;;;;;;;4.50;3.83;;;;;;;;;;10402080;28;20189;-84
2024/01/29 12:01:44;;;;;;;6.70;5.05;;;;;;;;;;10308704;28;20614;-86
2024/01/29 12:18:30;;;;;;;4.70;3.83;;;;;;;;;;10443861;28;20104;-85
2024/01/29 12:23:40;;;;;;;4.15;3.67;;;;;;;;;;10487468;28;20071;-84
2024/01/29 12:28:41;;;;;;;6.03;4.15;;;;;;;;;;10516856;28;20047;-84
2024/01/29 12:33:42;;;;;;;;;;;;;;;;;;10600462;28;20031;-84
2024/01/29 12:38:54;;;;;;;5.30;3.67;;;;;;;;;;10580126;28;20279;-84
2024/01/29 12:43:55;;;;;;;4.97;3.53;;;;;;;;;;10579679;28;20517;-84
2024/01/29 12:48:57;;;;;;;6.43;4.78;;;;;;;;;;10580508;28;20107;-84
2024/01/29 12:53:58;;;;;;;6.03;4.97;;;;;;;;;;10579070;28;20034;-84
2024/01/29 12:59:01;;;;;;;;;;;;;;;;;;10600027;28;20016;-83
2024/01/29 13:04:02;;;;;;;6.10;4.50;;;;;;;;;;10601562;28;19954;-83
2024/01/29 13:09:04;;;;;;;4.65;3.45;;;;;;;;;;10589059;28;20020;-83
2024/01/29 13:14:05;;;;;;;6.57;4.07;;;;;;;;;;10580989;28;20099;-84
2024/01/29 13:19:06;;;;;;;5.13;3.67;;;;;;;;;;10581405;28;20043;-84
2024/01/29 13:24:08;;;;;;;;;;;;;;;;;;10582991;28;20110;-83
2024/01/29 13:29:09;;;;;;;5.30;3.67;;;;;;;;;;10585908;28;20286;-83
2024/01/29 13:34:11;;;;;;;4.50;3.80;;;;;;;;;;10584015;28;20031;-84
2024/01/29 13:39:13;;;;;;;5.57;3.35;;;;;;;;;;10599206;28;20023;-83
2024/01/29 13:44:14;;;;;;;5.57;4.40;;;;;;;;;;10597108;28;20077;-83
2024/01/29 13:49:16;;;;;;;;;;;;;;;;;;10577405;28;20109;-82
2024/01/29 13:54:17;;;;;;;5.97;4.00;;;;;;;;;;10576581;28;19904;-83
2024/01/29 13:59:18;;;;;;;;;;;;;;;;;;10594384;28;20165;-82
2024/01/29 14:04:19;;;;;;;16.27;3.95;;;;;;;;;;10576836;28;19997;-83
2024/01/29 14:09:20;;;;;;;4.22;3.25;;;;;;;;;;10577071;28;20035;-83
2024/01/29 14:14:21;;;;;;;;;;;;;;;;;;10578728;28;20054;-83
2024/01/29 14:19:22;;;;;;;5.80;3.97;;;;;;;;;;10578408;28;19918;-85
2024/01/29 14:24:23;;;;;;;5.32;4.40;;;;;;;;;;10578384;28;20023;-84
2024/01/29 14:29:24;;;;;;;5.00;3.20;;;;;;;;;;10577082;28;20147;-83
2024/01/29 14:34:25;;;;;;;;;;;;;;;;;;10576348;28;20126;-83
2024/01/29 14:39:26;;;;;;;5.00;3.00;;;;;;;;;;10575640;28;19930;-84
2024/01/29 14:44:27;;;;;;;4.63;3.85;;;;;;;;;;10573963;28;20031;-84
2024/01/29 14:49:28;;;;;;;4.15;3.08;;;;;;;;;;10575919;28;20031;-84
2024/01/29 14:54:29;;;;;;;4.20;3.42;;;;;;;;;;10578308;28;20099;-84
2024/01/29 14:59:30;;;;;;;5.85;3.72;;;;;;;;;;10577038;28;20043;-84
2024/01/29 15:04:31;;;;;;;6.10;4.22;;;;;;;;;;10610903;28;20028;-84
2024/01/29 15:09:32;;;;;;;9.25;7.60;;;;;;;;;;10589650;28;20055;-85
2024/01/29 15:14:34;;;;;;;7.30;5.22;;;;;;;;;;10585838;28;20020;-84
2024/01/29 15:19:35;;;;;;;7.90;4.35;;;;;;;;;;10583993;28;20095;-83
2024/01/29 15:24:37;;;;;;;10.85;8.57;;;;;;;;;;10604076;28;20045;-84
2024/01/29 15:29:38;;;;;;;6.88;4.32;;;;;;;;;;10585001;28;20045;-84
2024/01/29 15:34:40;;;;;;;5.38;3.70;;;;;;;;;;10584588;28;20399;-84
2024/01/29 15:39:42;;;;;;;5.47;3.72;;;;;;;;;;10603837;28;20026;-80
2024/01/29 15:44:43;;;;;;;9.95;5.40;;;;;;;;;;10600861;28;20020;-84
2024/01/29 15:49:44;;;;;;;5.85;4.22;;;;;;;;;;10581985;28;20027;-83
2024/01/29 15:54:45;;;;;;;8.02;4.53;;;;;;;;;;10601064;28;20028;-82
2024/01/29 15:59:48;;;;;;;7.57;5.30;;;;;;;;;;10607490;28;20031;-83
2024/01/29 16:04:51;;;;;;;10.10;6.78;;;;;;;;;;10603617;27;20057;-82
2024/01/29 16:09:52;;;;;;;10.32;6.47;;;;;;;;;;10602702;28;20027;-83
2024/01/29 16:14:53;;;;;;;13.40;9.05;;;;;;;;;;10583886;28;20052;-84
2024/01/29 16:19:54;;;;;;;8.80;5.85;;;;;;;;;;10582092;28;20038;-82
2024/01/29 16:24:55;;;;;;;9.32;6.95;;;;;;;;;;10599573;28;20048;-84
2024/01/29 16:29:57;;;;;;;16.25;8.00;;;;;;;;;;10580973;28;20095;-85
2024/01/29 16:34:58;;;;;;;16.85;7.15;;;;;;;;;;10599685;28;20035;-83
2024/01/29 16:39:59;;;;;;;15.23;6.75;;;;;;;;;;10599922;28;20034;-82
2024/01/29 16:45:00;;;;;;;10.00;6.07;;;;;;;;;;10579421;28;20026;-83
2024/01/29 16:50:01;;;;;;;9.07;5.80;;;;;;;;;;10581237;28;20050;-83
2024/01/29 16:55:04;;;;;;;11.60;6.10;;;;;;;;;;10587406;28;20107;-83
2024/01/29 17:00:10;;;;;;;10.50;5.55;;;;;;;;;;10600511;28;20027;-83
2024/01/29 17:05:13;;;;;;;6.45;4.47;;;;;;;;;;10585244;28;20026;-83
2024/01/29 17:10:15;;;;;;;7.00;4.93;;;;;;;;;;10578269;28;20043;-82
2024/01/29 17:15:16;;;;;;;10.13;5.47;;;;;;;;;;10596425;28;20107;-82
2024/01/29 17:20:18;;;;;;;11.20;6.63;;;;;;;;;;10587624;27;20082;-83
2024/01/29 17:25:31;;;;;;;12.27;7.70;;;;;;;;;;10582566;28;20115;-85
2024/01/29 17:30:56;;;;;;;11.18;6.57;;;;;;;;;;10583306;28;20387;-83
2024/01/29 17:36:15;;;;;;;10.35;6.60;;;;;;;;;;10590076;28;20031;-82
2024/01/29 17:41:47;;;;;;;9.70;7.00;;;;;;;;;;10574888;28;20027;-82
2024/01/29 17:46:54;;;;;;;15.05;8.93;;;;;;;;;;10570967;28;20479;-82
2024/01/29 17:51:55;;;;;;;9.98;7.18;;;;;;;;;;10591524;28;20024;-82
2024/01/29 17:57:19;;;;;;;12.05;7.13;;;;;;;;;;10593168;28;20110;-82
2024/01/29 18:14:23;;;;;;;12.82;9.48;;;;;;;;;;10591156;28;20059;-83
2024/01/29 18:25:20;;;;;;;10.10;6.90;;;;;;;;;;10620060;27;20419;-84
2024/01/29 18:52:57;;;;;;;11.68;7.72;;;;;;;;;;10570633;22;20045;-85
2024/01/29 18:57:58;;;;;;;9.40;7.40;;;;;;;;;;10525389;28;20025;-84
2024/01/29 19:02:59;;;;;;;11.85;8.95;;;;;;;;;;10570323;28;20043;-83
2024/01/29 19:08:00;;;;;;;10.60;7.80;;;;;;;;;;10585952;28;20028;-83
2024/01/29 19:13:03;;;;;;;11.68;8.10;;;;;;;;;;10582667;28;20024;-83
2024/01/29 19:18:04;;;;;;;10.48;7.80;;;;;;;;;;10550873;28;20031;-84
2024/01/29 19:23:05;;;;;;;10.23;7.82;;;;;;;;;;10555616;28;20111;-83
2024/01/29 19:28:06;;;;;;;10.73;8.13;;;;;;;;;;10558907;28;20391;-83
2024/01/29 19:33:08;;;;;;;11.30;8.32;;;;;;;;;;10578982;28;20042;-83
2024/01/29 19:38:09;;;;;;;12.13;8.60;;;;;;;;;;10576915;28;20028;-85
2024/01/29 19:43:10;;;;;;;9.48;7.25;;;;;;;;;;10555900;28;20024;-83
2024/01/29 19:48:11;;;;;;;;;;;;;;;;;;10554584;28;20103;-84
2024/01/29 19:53:12;;;;;;;9.93;7.03;;;;;;;;;;10540139;28;19918;-84
2024/01/29 19:58:13;;;;;;;8.38;6.90;;;;;;;;;;10557842;28;20064;-85
2024/01/29 20:03:14;;;;;;;8.05;6.72;;;;;;;;;;10557649;28;20035;-84
2024/01/29 20:08:16;;;;;;;8.82;7.25;;;;;;;;;;10555802;28;20108;-84
